Terminal Aerodrome Forecast
Issued by NWS

Home | Current Version | Previous Version | Text Only | Print | Product List | Glossary On
Versions: 1 2 3 4 5 6 7 8 9 10 11 12 13 14
548
FTPA31 PHFO 291738
TAFHKO
TAF
PHKO 291738Z 2918/3018 05007KT P6SM FEW050
     FM292000 20011KT P6SM FEW025 BKN050
     FM300600 05011KT P6SM SCT050=

USA.gov is the U.S. government's official web portal to all federal, state and local government web resources and services.